»·PEaware :: DAL8320 KSFO-KRNO

DAL8320 :: KSFO-KRNO

FLIGHT INFORMATION

Flight Status: Arrived
Operator:
Delta Air Lines
More flights by this operator :: More flights under this callsign
Pilot: Alex C. (14758)
Aircraft: Unknown
(B77L)
More flights by this aircraft type
Origin: KSFO San Francisco Intl
United States
Destination: KRNO Reno/Tahoe Intl
United States
More flights between these airports :: More routes between these airports
Route: +TRUKN2 ORRCA HOBOA JUDPU
File this flight plan on PilotEdge
Remarks: IFR KSFO / KRNO 17,000 / / L
Altitude:
(Current/Filed)
17,000ft
Speed:
(Current/Filed)
180kts
Departed: 02-Dec-17 09:18 PM
Arrived: 02-Dec-17 10:19 PM
Distance/Time
Traveled:
167nm/1:01
Distance/Time
To Go:
Arrived

Flight Plot

Page will automatically refresh every two minutes.

Flight plan parsing failed; only flown route is shown


Map Options




Map Legend


Flown Route
Filed Route
Departure Airport
Arrival Airport
Navaid (VOR, NDB)
Fix

Horizontal Profiles

Position Reports

Time Latitude Longitude Heading Altitude Ground
Speed
02-Dec-17 20:53 37.634922 -122.390043 26 30ft 0kts
02-Dec-17 20:54 37.634922 -122.390043 26 30ft 0kts
02-Dec-17 20:55 37.634922 -122.390043 26 30ft 0kts
02-Dec-17 20:56 37.634922 -122.390043 26 30ft 0kts
02-Dec-17 20:57 37.634922 -122.390043 26 30ft 0kts
02-Dec-17 20:58 37.634922 -122.390043 26 30ft 0kts
02-Dec-17 20:59 37.634922 -122.390043 26 30ft 0kts
02-Dec-17 21:00 37.634922 -122.390043 26 30ft 0kts
02-Dec-17 21:01 37.634922 -122.390043 26 30ft 0kts
02-Dec-17 21:02 37.634922 -122.390043 26 30ft 0kts
02-Dec-17 21:03 37.634922 -122.390043 26 30ft 0kts
02-Dec-17 21:04 37.634922 -122.390043 26 30ft 0kts
02-Dec-17 21:05 37.634922 -122.390043 26 30ft 0kts
02-Dec-17 21:06 37.634922 -122.390043 26 30ft 0kts
02-Dec-17 21:07 37.634922 -122.390043 26 30ft 0kts
02-Dec-17 21:08 37.634922 -122.390043 26 30ft 0kts
02-Dec-17 21:09 37.634922 -122.390043 26 30ft 0kts
02-Dec-17 21:10 37.634601 -122.389945 289 30ft 2kts
02-Dec-17 21:11 37.634570 -122.388867 235 30ft 0kts
02-Dec-17 21:12 37.634570 -122.388867 235 30ft 0kts
02-Dec-17 21:13 37.634512 -122.388975 235 30ft 5kts
02-Dec-17 21:14 37.633333 -122.391607 208 30ft 16kts
02-Dec-17 21:15 37.631087 -122.392485 182 30ft 15kts
02-Dec-17 21:16 37.628980 -122.390262 116 30ft 19kts
02-Dec-17 21:17 37.627116 -122.385878 118 30ft 25kts
02-Dec-17 21:18 37.624580 -122.379748 118 30ft 32kts
02-Dec-17 21:19 37.622037 -122.373812 117 30ft 20kts
02-Dec-17 21:20 37.619604 -122.367984 117 30ft 28kts
02-Dec-17 21:21 37.616683 -122.360947 118 30ft 28kts
02-Dec-17 21:22 37.614720 -122.356809 158 30ft 10kts
02-Dec-17 21:23 37.615008 -122.360647 298 30ft 74kts
02-Dec-17 21:24 37.629221 -122.391723 314 982ft 227kts
02-Dec-17 21:25 37.671884 -122.392100 40 4341ft 275kts
02-Dec-17 21:26 37.685662 -122.342715 88 7317ft 295kts
02-Dec-17 21:27 37.693912 -122.296126 71 9654ft 314kts
02-Dec-17 21:28 37.716092 -122.225563 55 11116ft 371kts
02-Dec-17 21:29 37.775547 -122.162188 32 13950ft 383kts
02-Dec-17 21:30 37.846654 -122.097936 31 16838ft 406kts
02-Dec-17 21:31 37.924657 -122.027233 30 18995ft 430kts
02-Dec-17 21:32 38.000106 -121.958675 31 19006ft 441kts
02-Dec-17 21:33 38.080431 -121.885378 31 18990ft 428kts
02-Dec-17 21:34 38.149600 -121.822141 30 18970ft 429kts
02-Dec-17 21:35 38.207345 -121.769241 31 18962ft 429kts
02-Dec-17 21:36 38.264598 -121.716693 31 18960ft 429kts
02-Dec-17 21:37 38.305687 -121.678908 31 18961ft 429kts
02-Dec-17 21:38 38.375268 -121.614811 30 18966ft 429kts
02-Dec-17 21:39 38.447081 -121.546841 38 18969ft 432kts
02-Dec-17 21:40 38.505625 -121.472705 41 18978ft 433kts
02-Dec-17 21:41 38.562070 -121.400704 41 18984ft 434kts
02-Dec-17 21:42 38.612983 -121.335584 41 18981ft 433kts
02-Dec-17 21:43 38.660714 -121.274407 41 18982ft 433kts
02-Dec-17 21:44 38.717370 -121.201619 41 18984ft 433kts
02-Dec-17 21:45 38.770169 -121.133791 43 18986ft 435kts
02-Dec-17 21:46 38.826865 -121.060637 44 18984ft 435kts
02-Dec-17 21:47 38.882621 -120.988508 46 18981ft 432kts
02-Dec-17 21:48 38.937185 -120.917540 45 18984ft 436kts
02-Dec-17 21:49 38.986154 -120.853818 44 18990ft 441kts
02-Dec-17 21:50 39.034150 -120.791279 43 18996ft 446kts
02-Dec-17 21:51 39.082069 -120.728861 43 19001ft 446kts
02-Dec-17 21:52 39.127689 -120.669264 43 18384ft 447kts
02-Dec-17 21:53 39.171032 -120.612466 43 17760ft 437kts
02-Dec-17 21:54 39.212341 -120.558250 44 17131ft 419kts
02-Dec-17 21:55 39.250255 -120.508392 43 16488ft 395kts
02-Dec-17 21:56 39.285094 -120.462520 44 16090ft 384kts
02-Dec-17 21:57 39.316993 -120.420452 44 16103ft 384kts
02-Dec-17 21:58 39.348483 -120.378866 44 16095ft 386kts
02-Dec-17 21:59 39.374062 -120.345050 44 16086ft 386kts
02-Dec-17 22:00 39.398161 -120.313167 44 15975ft 388kts
02-Dec-17 22:01 39.423502 -120.275819 50 15550ft 384kts
02-Dec-17 22:02 39.450749 -120.220018 81 14998ft 371kts
02-Dec-17 22:03 39.457750 -120.173650 83 14646ft 370kts
02-Dec-17 22:04 39.463815 -120.134401 83 14303ft 367kts
02-Dec-17 22:05 39.472998 -120.074467 83 13775ft 363kts
02-Dec-17 22:06 39.484823 -119.997045 83 13089ft 358kts
02-Dec-17 22:07 39.495463 -119.927246 83 12478ft 351kts
02-Dec-17 22:08 39.506341 -119.856841 71 11872ft 332kts
02-Dec-17 22:09 39.512896 -119.774339 98 11052ft 317kts
02-Dec-17 22:10 39.474268 -119.715014 154 10189ft 289kts
02-Dec-17 22:11 39.418885 -119.681947 152 9310ft 283kts
02-Dec-17 22:12 39.368514 -119.651179 153 9025ft 278kts
02-Dec-17 22:13 39.324601 -119.621595 153 9022ft 279kts
02-Dec-17 22:14 39.283336 -119.609166 208 9057ft 224kts
02-Dec-17 22:15 39.271009 -119.653607 274 9061ft 217kts
02-Dec-17 22:16 39.276317 -119.703026 273 9017ft 219kts
02-Dec-17 22:17 39.301533 -119.746205 351 8974ft 218kts
02-Dec-17 22:18 39.344273 -119.722262 357 8736ft 230kts
02-Dec-17 22:19 39.371770 -119.735341 324 7780ft 201kts
02-Dec-17 22:20 39.404122 -119.760138 331 6416ft 166kts
02-Dec-17 22:21 39.438090 -119.768897 355 5545ft 180kts
02-Dec-17 22:22 39.475550 -119.769259 355 4683ft 178kts
02-Dec-17 22:23 39.507977 -119.769385 0 4432ft 123kts
02-Dec-17 22:24 39.513719 -119.771001 251 4432ft 13kts
02-Dec-17 22:25 39.510834 -119.771489 181 4432ft 20kts
02-Dec-17 22:26 39.507091 -119.771491 182 4432ft 16kts
02-Dec-17 22:27 39.506572 -119.772032 278 4432ft 1kts
02-Dec-17 22:28 39.506927 -119.772112 284 4432ft 9kts
02-Dec-17 22:29 39.506946 -119.772242 280 4432ft 0kts
02-Dec-17 22:30 39.506937 -119.772171 278 4432ft 0kts

Navigation Log

Ident Type
Flight plan parsing failed, navigation log unavailable